Merigomish, Canada
Current Conditions -  °F | °C
As of 5:00 PM on Saturday 22 Nov 2014 (Local Time) from CYPD Reporting Station
Broken Clouds Broken Clouds  
Wind Chill: 12°   Ceiling: 7000
Heat Index: 25°   Visibility: 9mi
Dew Point: 14°   Wind: 16mph
Humidity: 64%   Direction: 240°WSW
Pressure: 29.97"   Gusts: NA
Location:  45.62°N, 62.42°W
Report Text: CYPD 222100Z AUTO 24014KT 9SM BKN070 M04/M10 A2997 RMK SLP156
Loading
Personal Weather Stations






























Interactive Weather Map New forecast layout! Learn more

10-Day Weather Forecast

Advertisements
Track Severe Weather on mobile